createdAt,value
2022-08-07T00:02:36.453Z,5.60
2022-08-07T00:05:23.713Z,4.63
2022-08-07T00:08:25.704Z,5.35
2022-08-07T00:11:30.200Z,6.32
2022-08-07T00:14:47.515Z,7.95
2022-08-07T00:17:50.500Z,6.97
2022-08-07T00:20:56.818Z,8.82
2022-08-07T00:23:59.260Z,8.60
2022-08-07T00:27:06.481Z,7.35
2022-08-07T00:30:26.518Z,8.55
2022-08-07T00:33:29.475Z,6.80
2022-08-07T00:36:34.565Z,7.85
2022-08-07T00:39:36.306Z,6.35
2022-08-07T00:42:46.617Z,7.78
2022-08-07T00:45:51.918Z,6.70
2022-08-07T00:48:54.252Z,6.68
2022-08-07T00:51:56.909Z,7.63
2022-08-07T00:54:59.642Z,8.18
2022-08-07T00:58:06.911Z,9.55
2022-08-07T01:01:08.659Z,7.97
2022-08-07T01:04:10.281Z,7.55
2022-08-07T01:07:12.980Z,7.95
2022-08-07T01:10:15.304Z,8.35
2022-08-07T01:13:20.208Z,7.88
2022-08-07T01:16:29.959Z,8.63
2022-08-07T01:19:34.226Z,7.20
2022-08-07T01:22:54.065Z,7.82
2022-08-07T01:26:05.100Z,8.25
2022-08-07T01:29:08.050Z,7.53
2022-08-07T01:32:13.353Z,8.15
2022-08-07T01:35:18.328Z,9.48
2022-08-07T01:38:29.302Z,8.25
2022-08-07T01:41:35.530Z,8.57
2022-08-07T01:44:38.833Z,10.30
2022-08-07T01:48:19.666Z,10.60
2022-08-07T01:51:24.224Z,8.20
2022-08-07T01:54:36.802Z,8.38
2022-08-07T01:58:01.274Z,8.30
2022-08-07T02:01:59.218Z,7.88
2022-08-07T02:05:05.310Z,8.43
2022-08-07T02:08:14.780Z,9.32
2022-08-07T02:11:30.957Z,9.07
2022-08-07T02:14:41.311Z,8.68
2022-08-07T02:17:53.575Z,8.55
2022-08-07T02:20:57.768Z,8.27
2022-08-07T02:24:00.545Z,8.73
2022-08-07T02:27:04.461Z,10.55
2022-08-07T02:30:08.670Z,8.52
2022-08-07T02:33:12.749Z,10.07
2022-08-07T02:36:29.576Z,8.50
2022-08-07T02:40:02.231Z,10.32
2022-08-07T02:43:07.991Z,9.60
2022-08-07T02:46:11.679Z,8.63
2022-08-07T02:49:28.920Z,9.13
2022-08-07T02:52:52.865Z,9.32
2022-08-07T02:56:03.219Z,12.07
2022-08-07T02:59:11.824Z,8.73
2022-08-07T03:02:15.025Z,9.45
2022-08-07T03:05:20.774Z,8.60
2022-08-07T03:08:26.875Z,9.05
2022-08-07T03:11:38.783Z,9.25
2022-08-07T03:14:52.017Z,9.40
2022-08-07T03:17:54.528Z,9.43
2022-08-07T03:21:00.004Z,9.68
2022-08-07T03:24:18.998Z,8.60
2022-08-07T03:27:30.116Z,10.65
2022-08-07T03:30:35.524Z,9.35
2022-08-07T03:33:40.178Z,9.25
2022-08-07T03:36:45.697Z,9.67
2022-08-07T03:40:07.305Z,8.55
2022-08-07T03:43:13.834Z,10.25
2022-08-07T03:46:22.600Z,10.85
2022-08-07T03:49:29.632Z,10.18
2022-08-07T03:52:32.334Z,8.55
2022-08-07T03:55:58.044Z,8.18
2022-08-07T03:59:09.283Z,8.88
2022-08-07T04:02:16.518Z,10.98
2022-08-07T04:05:24.025Z,8.13
2022-08-07T04:08:32.640Z,10.10
2022-08-07T04:12:24.266Z,10.15
2022-08-07T04:14:59.588Z,8.65
2022-08-07T04:18:31.964Z,10.30
2022-08-07T04:21:26.415Z,9.35
2022-08-07T04:24:39.269Z,10.23
2022-08-07T04:27:59.302Z,9.00
2022-08-07T04:31:04.628Z,10.90
2022-08-07T04:34:16.472Z,9.48
2022-08-07T04:37:20.750Z,9.13
2022-08-07T04:40:29.813Z,9.93
2022-08-07T04:44:11.742Z,7.90
2022-08-07T04:51:14.056Z,8.25
2022-08-07T04:54:33.988Z,10.80
2022-08-07T04:58:33.614Z,11.07
2022-08-07T05:01:50.635Z,9.73
2022-08-07T05:05:02.646Z,8.75
2022-08-07T05:08:59.651Z,9.60
2022-08-07T05:11:56.892Z,9.90
2022-08-07T05:15:23.600Z,8.57
2022-08-07T05:18:34.196Z,8.45
2022-08-07T05:25:00.591Z,10.60
2022-08-07T05:28:20.874Z,10.70
2022-08-07T05:31:34.801Z,9.13
2022-08-07T05:34:40.748Z,7.97
2022-08-07T05:37:45.628Z,10.40
2022-08-07T05:41:14.318Z,7.88
2022-08-07T05:44:29.289Z,8.68
2022-08-07T05:48:01.792Z,10.02
2022-08-07T05:50:59.373Z,9.13
2022-08-07T05:54:12.866Z,8.05
2022-08-07T05:57:30.282Z,7.35
2022-08-07T06:00:37.348Z,8.88
2022-08-07T06:07:07.065Z,7.18
2022-08-07T06:10:15.429Z,8.20
2022-08-07T06:14:10.573Z,7.18
2022-08-07T06:16:45.762Z,8.43
2022-08-07T06:20:03.331Z,9.25
2022-08-07T06:23:25.098Z,6.28
2022-08-07T06:26:30.409Z,5.57
2022-08-07T06:29:39.006Z,6.28
2022-08-07T06:32:42.173Z,6.00
2022-08-07T06:36:06.283Z,7.57
2022-08-07T06:40:16.058Z,7.20
2022-08-07T06:42:37.380Z,7.05
2022-08-07T06:45:44.338Z,7.00
2022-08-07T06:48:47.248Z,8.65
2022-08-07T06:52:02.950Z,6.68
2022-08-07T06:55:34.547Z,7.10
2022-08-07T06:58:41.340Z,7.85
2022-08-07T07:02:05.972Z,6.90
2022-08-07T07:05:08.387Z,7.72
2022-08-07T07:08:18.634Z,9.55
2022-08-07T07:12:07.484Z,8.13
2022-08-07T07:15:00.464Z,7.80
2022-08-07T07:18:43.094Z,8.65
2022-08-07T07:22:04.569Z,8.32
2022-08-07T07:26:31.497Z,7.65
2022-08-07T07:28:48.284Z,7.20
2022-08-07T07:32:01.830Z,6.55
2022-08-07T07:35:06.664Z,7.93
2022-08-07T07:38:12.163Z,7.82
2022-08-07T07:41:17.586Z,6.90
2022-08-07T07:44:26.068Z,6.68
2022-08-07T07:47:30.093Z,6.25
2022-08-07T07:50:47.571Z,8.70
2022-08-07T07:53:53.744Z,7.50
2022-08-07T07:56:57.390Z,9.88
2022-08-07T08:00:02.170Z,7.43
2022-08-07T08:04:10.574Z,8.55
2022-08-07T08:06:50.980Z,6.38
2022-08-07T08:10:05.393Z,6.25
2022-08-07T08:13:14.963Z,6.40
2022-08-07T08:16:25.148Z,7.00
2022-08-07T08:20:18.690Z,5.57
2022-08-07T08:23:14.440Z,7.53
2022-08-07T08:26:36.873Z,5.57
2022-08-07T08:29:54.543Z,7.40
2022-08-07T08:33:01.769Z,6.78
2022-08-07T08:36:06.650Z,5.78
2022-08-07T08:39:10.275Z,5.55
2022-08-07T08:42:33.158Z,5.40
2022-08-07T08:45:59.128Z,4.90
2022-08-07T08:49:13.238Z,4.82
2022-08-07T08:52:22.428Z,5.90
2022-08-07T08:55:53.256Z,5.07
2022-08-07T08:59:25.930Z,4.88
2022-08-07T09:02:49.554Z,4.32
2022-08-07T09:06:26.966Z,4.80
2022-08-07T09:09:41.740Z,6.07
2022-08-07T09:13:02.010Z,4.22
2022-08-07T09:16:39.427Z,3.92
2022-08-07T09:20:00.845Z,4.00
2022-08-07T09:24:29.074Z,4.20
2022-08-07T09:26:53.182Z,3.17
2022-08-07T09:30:08.971Z,3.33
2022-08-07T09:33:56.660Z,3.33
2022-08-07T09:37:18.266Z,3.72
2022-08-07T09:40:28.623Z,5.65
2022-08-07T09:44:05.320Z,3.83
2022-08-07T09:47:59.552Z,3.13
2022-08-07T09:50:59.744Z,2.78
2022-08-07T09:54:03.688Z,3.22
2022-08-07T09:57:37.523Z,2.97
2022-08-07T10:01:50.474Z,3.67
2022-08-07T10:05:12.488Z,3.17
2022-08-07T10:08:21.463Z,3.28
2022-08-07T10:12:00.319Z,2.13
2022-08-07T10:15:44.367Z,3.10
2022-08-07T10:19:11.369Z,4.20
2022-08-07T10:22:43.147Z,3.58
2022-08-07T10:26:11.777Z,4.88
2022-08-07T10:29:31.966Z,5.18
2022-08-07T10:32:52.342Z,3.30
2022-08-07T10:36:29.911Z,3.30
2022-08-07T10:40:02.647Z,3.45
2022-08-07T10:43:34.455Z,3.30
2022-08-07T10:46:49.571Z,3.25
2022-08-07T10:50:04.815Z,4.55
2022-08-07T10:53:27.645Z,2.78
2022-08-07T10:57:13.137Z,4.60
2022-08-07T11:00:36.532Z,3.55
2022-08-07T11:04:16.998Z,3.72
2022-08-07T11:07:58.651Z,2.90
2022-08-07T11:11:10.337Z,2.75
2022-08-07T11:14:44.578Z,3.33
2022-08-07T11:18:03.651Z,4.93
2022-08-07T11:21:28.414Z,4.30
2022-08-07T11:24:45.382Z,3.60
2022-08-07T11:28:09.367Z,3.95
2022-08-07T11:31:30.463Z,5.18
2022-08-07T11:34:45.321Z,2.78
2022-08-07T11:38:12.795Z,4.22
2022-08-07T11:42:01.882Z,2.85
2022-08-07T11:45:20.283Z,4.00
2022-08-07T11:49:50.716Z,4.30
2022-08-07T11:52:29.100Z,3.15
2022-08-07T11:56:26.136Z,2.00
2022-08-07T12:00:10.112Z,2.97
2022-08-07T12:03:45.083Z,3.70
2022-08-07T12:07:00.397Z,3.30
2022-08-07T12:10:19.289Z,2.88
2022-08-07T12:13:37.175Z,2.55
2022-08-07T12:16:48.315Z,2.60
2022-08-07T12:20:09.526Z,2.13
2022-08-07T12:24:07.398Z,2.55
2022-08-07T12:27:18.518Z,4.05
2022-08-07T12:30:34.821Z,2.30
2022-08-07T12:34:01.126Z,3.20
2022-08-07T12:37:00.850Z,1.85
2022-08-07T12:40:04.256Z,2.75
2022-08-07T12:44:01.735Z,2.97
2022-08-07T12:46:59.706Z,2.95
2022-08-07T12:50:39.172Z,2.22
2022-08-07T12:54:37.227Z,2.10
2022-08-07T12:57:59.295Z,4.15
2022-08-07T13:01:03.284Z,2.40
2022-08-07T13:04:34.242Z,2.20
2022-08-07T13:08:12.265Z,2.40
2022-08-07T13:11:19.603Z,2.05
2022-08-07T13:14:59.353Z,2.65
2022-08-07T13:18:30.656Z,3.95
2022-08-07T13:21:54.962Z,2.90
2022-08-07T13:25:23.931Z,3.75
2022-08-07T13:28:37.873Z,3.08
2022-08-07T13:32:32.668Z,3.55
2022-08-07T13:36:01.371Z,2.05
2022-08-07T13:39:48.916Z,3.53
2022-08-07T13:42:48.622Z,3.03
2022-08-07T13:46:12.188Z,2.85
2022-08-07T13:50:33.526Z,2.67
2022-08-07T13:52:47.052Z,2.67
2022-08-07T13:55:54.861Z,2.90
2022-08-07T13:59:05.636Z,3.05
2022-08-07T14:02:21.131Z,2.63
2022-08-07T14:05:38.046Z,3.70
2022-08-07T14:08:45.392Z,2.77
2022-08-07T14:12:01.025Z,2.40
2022-08-07T14:15:10.450Z,2.30
2022-08-07T14:18:28.818Z,2.97
2022-08-07T14:22:02.997Z,3.47
2022-08-07T14:25:13.287Z,5.10
2022-08-07T14:28:18.300Z,2.42
2022-08-07T14:31:24.942Z,2.00
2022-08-07T14:34:52.514Z,3.55
2022-08-07T14:38:03.194Z,3.28
2022-08-07T14:41:15.118Z,2.42
2022-08-07T14:44:18.913Z,2.80
2022-08-07T14:47:23.471Z,2.85
2022-08-07T14:50:29.238Z,2.72
2022-08-07T14:54:08.640Z,2.83
2022-08-07T14:57:11.561Z,2.05
2022-08-07T15:00:34.911Z,3.30
2022-08-07T15:03:51.418Z,2.88
2022-08-07T15:06:54.218Z,2.42
2022-08-07T15:10:02.020Z,2.63
2022-08-07T15:13:25.439Z,3.08
2022-08-07T15:16:42.604Z,3.65
2022-08-07T15:25:15.013Z,2.78
2022-08-07T15:26:57.905Z,3.80
2022-08-07T15:33:33.624Z,2.50
2022-08-07T15:37:04.378Z,3.95
2022-08-07T15:40:05.094Z,2.33
2022-08-07T15:43:52.865Z,3.17
2022-08-07T15:50:04.159Z,5.32
2022-08-07T15:53:16.059Z,3.38
2022-08-07T15:56:33.102Z,3.22
2022-08-07T15:59:39.255Z,2.83
2022-08-07T16:02:47.673Z,2.75
2022-08-07T16:05:54.188Z,2.47
2022-08-07T16:09:03.305Z,3.47
2022-08-07T16:12:29.151Z,3.55
2022-08-07T16:15:58.729Z,3.08
2022-08-07T16:19:42.692Z,3.70
2022-08-07T16:23:53.553Z,3.03
2022-08-07T16:27:18.197Z,4.25
2022-08-07T16:30:31.716Z,3.75
2022-08-07T16:34:03.082Z,2.85
2022-08-07T16:38:04.005Z,5.43
2022-08-07T16:41:41.107Z,3.25
2022-08-07T16:45:24.681Z,4.10
2022-08-07T16:49:04.013Z,3.30
2022-08-07T16:52:52.317Z,4.05
2022-08-07T16:56:10.395Z,2.97
2022-08-07T16:59:47.101Z,2.83
2022-08-07T17:03:11.112Z,3.78
2022-08-07T17:06:44.303Z,3.25
2022-08-07T17:10:07.381Z,2.55
2022-08-07T17:13:16.398Z,3.03
2022-08-07T17:16:22.050Z,2.47
2022-08-07T17:20:02.015Z,5.38
2022-08-07T17:23:23.109Z,3.92
2022-08-07T17:26:51.388Z,4.93
2022-08-07T17:30:15.861Z,4.55
2022-08-07T17:34:09.283Z,2.67
2022-08-07T17:37:16.116Z,3.58
2022-08-07T17:40:56.628Z,2.10
2022-08-07T17:44:34.047Z,3.30
2022-08-07T17:48:12.664Z,2.60
2022-08-07T17:51:21.329Z,3.78
2022-08-07T17:54:54.371Z,3.67
2022-08-07T17:58:07.063Z,2.55
2022-08-07T18:01:21.470Z,5.85
2022-08-07T18:04:34.477Z,4.82
2022-08-07T18:07:36.796Z,3.92
2022-08-07T18:12:07.562Z,2.80
2022-08-07T18:14:27.677Z,3.75
2022-08-07T18:18:46.012Z,2.78
2022-08-07T18:21:51.398Z,3.03
2022-08-07T18:25:01.751Z,3.60
2022-08-07T18:28:58.732Z,4.30
2022-08-07T18:32:22.298Z,3.63
2022-08-07T18:35:50.281Z,2.80
2022-08-07T18:40:08.770Z,3.15
2022-08-07T18:43:00.593Z,2.85
2022-08-07T18:46:25.947Z,3.30
2022-08-07T18:50:30.759Z,2.80
2022-08-07T18:53:21.180Z,3.10
2022-08-07T18:56:32.813Z,3.42
2022-08-07T18:59:58.901Z,3.13
2022-08-07T19:03:12.351Z,3.40
2022-08-07T19:06:21.800Z,3.22
2022-08-07T19:09:57.625Z,4.28
2022-08-07T19:13:21.670Z,3.60
2022-08-07T19:17:08.584Z,4.15
2022-08-07T19:20:29.229Z,4.97
2022-08-07T19:23:58.712Z,5.32
2022-08-07T19:28:29.621Z,5.15
2022-08-07T19:31:06.452Z,5.68
2022-08-07T19:33:58.381Z,3.95
2022-08-07T19:37:09.909Z,4.43
2022-08-07T19:40:31.532Z,3.63
2022-08-07T19:43:48.592Z,4.22
2022-08-07T19:47:04.115Z,4.05
2022-08-07T19:50:45.163Z,3.95
2022-08-07T19:54:31.144Z,4.30
2022-08-07T19:57:56.753Z,6.85
2022-08-07T20:00:28.706Z,3.88
2022-08-07T20:03:34.092Z,5.60
2022-08-07T20:06:42.794Z,5.45
2022-08-07T20:10:36.151Z,3.67
2022-08-07T20:13:22.630Z,5.00
2022-08-07T20:16:35.174Z,4.32
2022-08-07T20:19:48.286Z,4.65
2022-08-07T20:23:41.837Z,4.65
2022-08-07T20:26:52.188Z,5.97
2022-08-07T20:30:00.294Z,4.15
2022-08-07T20:33:04.952Z,4.20
2022-08-07T20:36:13.330Z,4.57
2022-08-07T20:40:01.388Z,3.70
2022-08-07T20:42:56.214Z,4.28
2022-08-07T20:46:25.832Z,3.95
2022-08-07T20:49:59.230Z,4.35
2022-08-07T20:52:50.581Z,3.72
2022-08-07T20:55:59.983Z,3.90
2022-08-07T20:59:05.368Z,3.92
2022-08-07T21:02:38.399Z,5.55
2022-08-07T21:05:54.536Z,5.15
2022-08-07T21:09:13.743Z,4.95
2022-08-07T21:12:26.021Z,4.03
2022-08-07T21:15:58.027Z,4.25
2022-08-07T21:18:57.590Z,3.65
2022-08-07T21:22:04.997Z,4.65
2022-08-07T21:25:20.587Z,4.50
2022-08-07T21:28:48.342Z,4.80
2022-08-07T21:32:46.721Z,4.85
2022-08-07T21:35:34.721Z,4.28
2022-08-07T21:39:47.016Z,4.50
2022-08-07T21:42:56.516Z,4.53
2022-08-07T21:46:31.491Z,4.95
2022-08-07T21:50:02.900Z,4.47
2022-08-07T21:53:16.222Z,5.38
2022-08-07T21:56:48.968Z,4.32
2022-08-07T22:00:23.005Z,5.97
2022-08-07T22:03:32.031Z,4.50
2022-08-07T22:06:44.982Z,4.15
2022-08-07T22:09:54.140Z,6.72
2022-08-07T22:13:02.796Z,4.85
2022-08-07T22:16:39.685Z,5.57
2022-08-07T22:20:00.402Z,4.80
2022-08-07T22:23:17.459Z,5.50
2022-08-07T22:26:29.872Z,6.13
2022-08-07T22:29:48.089Z,5.47
2022-08-07T22:33:04.419Z,5.63
2022-08-07T22:36:40.671Z,5.70
2022-08-07T22:40:16.372Z,4.88
2022-08-07T22:43:27.878Z,7.28
2022-08-07T22:47:05.985Z,5.30
2022-08-07T22:50:39.720Z,5.32
2022-08-07T22:54:11.691Z,5.53
2022-08-07T22:57:46.107Z,7.13
2022-08-07T23:01:09.240Z,7.30
2022-08-07T23:04:33.341Z,5.18
2022-08-07T23:08:24.471Z,6.07
2022-08-07T23:11:50.836Z,5.07
2022-08-07T23:16:04.536Z,4.97
2022-08-07T23:19:38.817Z,5.68
2022-08-07T23:22:59.054Z,6.13
2022-08-07T23:26:09.956Z,6.75
2022-08-07T23:30:38.189Z,6.25
2022-08-07T23:34:35.597Z,6.60
2022-08-07T23:37:20.030Z,7.40
2022-08-07T23:40:41.241Z,6.65
2022-08-07T23:44:00.881Z,6.57
2022-08-07T23:47:17.703Z,5.30
2022-08-07T23:50:43.490Z,6.55
2022-08-07T23:53:56.089Z,6.00
2022-08-07T23:57:13.991Z,5.80
